createdAt,value
2023-08-05T00:02:04.262Z,18.40
2023-08-05T00:04:38.675Z,18.40
2023-08-05T00:07:13.007Z,18.30
2023-08-05T00:09:47.462Z,18.26
2023-08-05T00:12:21.853Z,18.20
2023-08-05T00:14:56.186Z,18.10
2023-08-05T00:17:30.842Z,18.08
2023-08-05T00:20:05.665Z,18.00
2023-08-05T00:22:40.112Z,17.90
2023-08-05T00:25:14.961Z,17.82
2023-08-05T00:27:49.285Z,17.80
2023-08-05T00:30:23.787Z,17.80
2023-08-05T00:32:58.206Z,17.80
2023-08-05T00:35:32.928Z,17.80
2023-08-05T00:38:07.210Z,17.80
2023-08-05T00:40:43.319Z,17.76
2023-08-05T00:43:17.551Z,17.70
2023-08-05T00:45:52.086Z,17.70
2023-08-05T00:48:26.681Z,17.70
2023-08-05T00:51:02.751Z,17.70
2023-08-05T00:53:38.893Z,17.70
2023-08-05T00:56:13.356Z,17.70
2023-08-05T00:58:49.183Z,17.70
2023-08-05T01:01:24.297Z,17.70
2023-08-05T01:03:58.664Z,17.68
2023-08-05T01:06:35.524Z,17.60
2023-08-05T01:09:11.399Z,17.60
2023-08-05T01:11:45.990Z,17.60
2023-08-05T01:14:20.569Z,17.60
2023-08-05T01:16:55.041Z,17.60
2023-08-05T01:19:32.158Z,17.60
2023-08-05T01:22:19.963Z,17.58
2023-08-05T01:25:08.538Z,17.60
2023-08-05T01:27:44.155Z,17.60
2023-08-05T01:30:18.470Z,17.70
2023-08-05T01:32:54.489Z,17.70
2023-08-05T01:35:28.994Z,17.70
2023-08-05T01:38:03.285Z,17.70
2023-08-05T01:40:38.103Z,17.70
2023-08-05T01:43:12.553Z,17.70
2023-08-05T01:45:46.724Z,17.70
2023-08-05T01:48:21.396Z,17.80
2023-08-05T01:50:55.847Z,17.80
2023-08-05T01:53:30.166Z,17.80
2023-08-05T01:56:04.627Z,17.80
2023-08-05T01:58:38.983Z,17.80
2023-08-05T02:01:13.454Z,17.80
2023-08-05T02:03:47.879Z,17.80
2023-08-05T02:06:22.378Z,17.80
2023-08-05T02:08:56.703Z,17.80
2023-08-05T02:11:31.962Z,17.80
2023-08-05T02:14:06.221Z,17.80
2023-08-05T02:16:40.831Z,17.80
2023-08-05T02:19:15.724Z,17.80
2023-08-05T02:21:50.265Z,17.80
2023-08-05T02:24:24.739Z,17.80
2023-08-05T02:26:58.989Z,17.80
2023-08-05T02:29:33.452Z,17.90
2023-08-05T02:32:09.487Z,17.90
2023-08-05T02:34:43.862Z,17.90
2023-08-05T02:37:18.110Z,17.90
2023-08-05T02:39:52.446Z,17.90
2023-08-05T02:42:26.829Z,17.90
2023-08-05T02:45:01.163Z,17.90
2023-08-05T02:47:35.725Z,17.90
2023-08-05T02:50:11.872Z,17.82
2023-08-05T02:52:46.269Z,17.80
2023-08-05T02:55:20.654Z,17.80
2023-08-05T02:57:54.937Z,17.80
2023-08-05T03:00:29.270Z,17.80
2023-08-05T03:03:03.963Z,17.80
2023-08-05T03:05:38.480Z,17.80
2023-08-05T03:08:13.360Z,17.80
2023-08-05T03:10:47.995Z,17.86
2023-08-05T03:13:22.651Z,17.90
2023-08-05T03:15:59.101Z,17.90
2023-08-05T03:18:33.372Z,17.92
2023-08-05T03:21:07.667Z,17.92
2023-08-05T03:23:43.774Z,18.00
2023-08-05T03:26:18.055Z,18.00
2023-08-05T03:28:52.750Z,18.00
2023-08-05T03:31:27.476Z,18.00
2023-08-05T03:34:02.327Z,18.00
2023-08-05T03:36:38.717Z,18.00
2023-08-05T03:39:13.341Z,18.10
2023-08-05T03:41:47.599Z,18.10
2023-08-05T03:44:21.974Z,18.10
2023-08-05T03:46:56.542Z,18.12
2023-08-05T03:49:30.914Z,18.20
2023-08-05T03:52:06.055Z,18.20
2023-08-05T03:54:40.331Z,18.20
2023-08-05T03:57:14.820Z,18.20
2023-08-05T03:59:51.196Z,18.20
2023-08-05T04:02:25.440Z,18.30
2023-08-05T04:04:59.705Z,18.30
2023-08-05T04:07:34.002Z,18.40
2023-08-05T04:10:10.033Z,18.40
2023-08-05T04:12:44.376Z,18.40
2023-08-05T04:15:20.035Z,18.50
2023-08-05T04:17:58.847Z,18.50
2023-08-05T04:20:35.719Z,18.50
2023-08-05T04:23:11.373Z,18.50
2023-08-05T04:25:49.257Z,18.50
2023-08-05T04:28:23.433Z,18.50
2023-08-05T04:30:59.018Z,18.50
2023-08-05T04:33:33.900Z,18.50
2023-08-05T04:36:08.631Z,18.50
2023-08-05T04:38:43.048Z,18.50
2023-08-05T04:41:17.413Z,18.50
2023-08-05T04:43:52.047Z,18.50
2023-08-05T04:46:26.491Z,18.50
2023-08-05T04:49:00.783Z,18.50
2023-08-05T04:51:35.064Z,18.50
2023-08-05T04:54:10.964Z,18.60
2023-08-05T04:56:45.263Z,18.60
2023-08-05T04:59:21.244Z,18.60
2023-08-05T05:01:55.554Z,18.60
2023-08-05T05:04:30.129Z,18.60
2023-08-05T05:07:04.626Z,18.60
2023-08-05T05:09:39.088Z,18.50
2023-08-05T05:12:14.165Z,18.50
2023-08-05T05:14:49.724Z,18.50
2023-08-05T05:17:24.227Z,18.60
2023-08-05T05:19:58.906Z,18.60
2023-08-05T05:22:33.209Z,18.60
2023-08-05T05:25:09.026Z,18.68
2023-08-05T05:27:43.490Z,18.70
2023-08-05T05:30:18.078Z,18.70
2023-08-05T05:32:52.662Z,18.70
2023-08-05T05:35:26.999Z,18.70
2023-08-05T05:38:01.947Z,18.80
2023-08-05T05:40:40.860Z,18.80
2023-08-05T05:43:15.151Z,18.90
2023-08-05T05:45:49.756Z,18.90
2023-08-05T05:48:24.155Z,19.00
2023-08-05T05:50:58.831Z,19.10
2023-08-05T05:53:33.203Z,19.10
2023-08-05T05:56:07.790Z,19.20
2023-08-05T05:58:42.247Z,19.20
2023-08-05T06:01:16.909Z,19.20
2023-08-05T06:03:51.604Z,19.30
2023-08-05T06:06:26.271Z,19.30
2023-08-05T06:09:02.256Z,19.40
2023-08-05T06:11:36.931Z,19.40
2023-08-05T06:14:11.276Z,19.48
2023-08-05T06:16:45.953Z,19.50
2023-08-05T06:19:20.390Z,19.50
2023-08-05T06:21:54.931Z,19.56
2023-08-05T06:24:30.648Z,19.60
2023-08-05T06:27:05.097Z,19.60
2023-08-05T06:29:39.430Z,19.60
2023-08-05T06:32:14.580Z,19.60
2023-08-05T06:34:48.859Z,19.70
2023-08-05T06:37:23.626Z,19.80
2023-08-05T06:39:58.061Z,19.90
2023-08-05T06:42:32.917Z,20.00
2023-08-05T06:45:09.246Z,20.00
2023-08-05T06:47:43.792Z,20.10
2023-08-05T06:50:18.271Z,20.20
2023-08-05T06:52:52.863Z,20.26
2023-08-05T06:55:27.327Z,20.30
2023-08-05T06:58:01.718Z,20.30
2023-08-05T07:00:36.106Z,20.30
2023-08-05T07:03:10.676Z,20.20
2023-08-05T07:05:45.171Z,20.30
2023-08-05T07:08:21.965Z,20.32
2023-08-05T07:11:00.932Z,20.40
2023-08-05T07:13:35.415Z,20.46
2023-08-05T07:16:10.190Z,20.50
2023-08-05T07:18:44.697Z,20.50
2023-08-05T07:21:19.383Z,20.58
2023-08-05T07:23:59.649Z,20.60
2023-08-05T07:26:35.164Z,20.50
2023-08-05T07:29:09.560Z,20.50
2023-08-05T07:31:44.308Z,20.50
2023-08-05T07:34:20.356Z,20.52
2023-08-05T07:36:55.512Z,20.50
2023-08-05T07:39:34.906Z,20.52
2023-08-05T07:42:10.768Z,20.60
2023-08-05T07:44:47.476Z,20.60
2023-08-05T07:47:22.258Z,20.60
2023-08-05T07:49:56.913Z,20.62
2023-08-05T07:52:32.653Z,20.68
2023-08-05T07:55:08.096Z,20.70
2023-08-05T07:57:43.026Z,20.70
2023-08-05T08:00:18.771Z,20.80
2023-08-05T08:02:53.310Z,20.76
2023-08-05T08:05:28.574Z,20.70
2023-08-05T08:08:03.461Z,20.68
2023-08-05T08:10:38.427Z,20.60
2023-08-05T08:13:12.940Z,20.60
2023-08-05T08:15:47.382Z,20.60
2023-08-05T08:18:23.223Z,20.60
2023-08-05T08:20:58.061Z,20.60
2023-08-05T08:23:32.593Z,20.60
2023-08-05T08:26:07.244Z,20.60
2023-08-05T08:28:42.193Z,20.64
2023-08-05T08:31:17.118Z,20.70
2023-08-05T08:33:52.166Z,20.90
2023-08-05T08:36:27.401Z,21.18
2023-08-05T08:39:03.220Z,21.52
2023-08-05T08:41:44.549Z,21.84
2023-08-05T08:44:22.323Z,22.10
2023-08-05T08:46:58.340Z,22.20
2023-08-05T08:49:38.526Z,22.30
2023-08-05T08:52:16.853Z,22.40
2023-08-05T08:54:53.047Z,22.60
2023-08-05T08:57:28.270Z,22.88
2023-08-05T09:00:03.336Z,23.00
2023-08-05T09:02:39.900Z,23.00
2023-08-05T09:05:16.690Z,23.00
2023-08-05T09:07:53.101Z,22.90
2023-08-05T09:10:27.826Z,22.70
2023-08-05T09:13:02.147Z,22.52
2023-08-05T09:15:41.675Z,22.40
2023-08-05T09:18:16.632Z,22.24
2023-08-05T09:20:53.339Z,22.06
2023-08-05T09:23:27.749Z,21.90
2023-08-05T09:26:02.726Z,21.74
2023-08-05T09:28:37.370Z,21.62
2023-08-05T09:31:21.724Z,21.50
2023-08-05T09:33:56.522Z,21.40
2023-08-05T09:36:34.940Z,21.40
2023-08-05T09:39:14.489Z,21.40
2023-08-05T09:41:55.967Z,21.40
2023-08-05T09:44:33.918Z,21.42
2023-08-05T09:47:11.178Z,21.60
2023-08-05T09:49:46.678Z,21.60
2023-08-05T09:52:24.993Z,21.60
2023-08-05T09:55:05.844Z,21.50
2023-08-05T09:57:40.970Z,21.40
2023-08-05T10:00:19.357Z,21.30
2023-08-05T10:02:55.019Z,21.20
2023-08-05T10:05:31.240Z,21.10
2023-08-05T10:08:08.030Z,21.20
2023-08-05T10:10:44.028Z,21.20
2023-08-05T10:13:23.225Z,21.20
2023-08-05T10:16:00.156Z,21.20
2023-08-05T10:18:37.343Z,21.20
2023-08-05T10:21:12.578Z,21.30
2023-08-05T10:24:02.010Z,21.38
2023-08-05T10:26:47.950Z,21.40
2023-08-05T10:29:35.528Z,21.32
2023-08-05T10:32:18.705Z,21.30
2023-08-05T10:35:32.948Z,21.30
2023-08-05T10:38:24.715Z,21.40
2023-08-05T10:41:01.969Z,21.50
2023-08-05T10:43:43.071Z,21.58
2023-08-05T10:46:18.864Z,21.66
2023-08-05T10:48:56.531Z,21.60
2023-08-05T10:51:34.983Z,21.50
2023-08-05T10:54:10.441Z,21.50
2023-08-05T10:56:45.184Z,21.40
2023-08-05T10:59:20.293Z,21.30
2023-08-05T11:02:01.561Z,21.30
2023-08-05T11:04:36.789Z,21.30
2023-08-05T11:07:11.678Z,21.32
2023-08-05T11:09:48.277Z,21.40
2023-08-05T11:12:23.041Z,21.40
2023-08-05T11:14:58.694Z,21.40
2023-08-05T11:17:33.290Z,21.40
2023-08-05T11:20:10.789Z,21.40
2023-08-05T11:22:52.364Z,21.40
2023-08-05T11:25:26.968Z,21.40
2023-08-05T11:28:02.386Z,21.50
2023-08-05T11:30:42.270Z,21.50
2023-08-05T11:33:17.533Z,21.60
2023-08-05T11:35:57.020Z,21.50
2023-08-05T11:38:31.615Z,21.30
2023-08-05T11:41:06.371Z,21.20
2023-08-05T11:43:42.480Z,21.20
2023-08-05T11:46:33.836Z,21.20
2023-08-05T11:49:17.843Z,21.10
2023-08-05T11:51:55.201Z,21.10
2023-08-05T11:54:35.237Z,21.00
2023-08-05T11:57:23.079Z,20.90
2023-08-05T11:59:58.009Z,20.92
2023-08-05T12:02:36.577Z,20.90
2023-08-05T12:05:12.690Z,20.80
2023-08-05T12:07:47.435Z,20.76
2023-08-05T12:10:23.692Z,20.70
2023-08-05T12:12:58.442Z,20.70
2023-08-05T12:15:33.204Z,20.80
2023-08-05T12:18:08.703Z,20.72
2023-08-05T12:20:43.552Z,20.80
2023-08-05T12:23:17.891Z,20.92
2023-08-05T12:25:53.113Z,21.00
2023-08-05T12:28:27.580Z,20.90
2023-08-05T12:31:02.162Z,20.90
2023-08-05T12:33:36.907Z,20.84
2023-08-05T12:36:11.913Z,20.90
2023-08-05T12:38:49.554Z,20.90
2023-08-05T12:41:25.068Z,20.80
2023-08-05T12:43:59.833Z,20.62
2023-08-05T12:46:34.641Z,20.70
2023-08-05T12:49:09.432Z,20.70
2023-08-05T12:51:44.266Z,20.60
2023-08-05T12:54:19.102Z,20.60
2023-08-05T12:56:53.839Z,20.50
2023-08-05T12:59:28.699Z,20.50
2023-08-05T13:02:03.962Z,20.50
2023-08-05T13:04:38.977Z,20.40
2023-08-05T13:07:15.060Z,20.40
2023-08-05T13:09:51.972Z,20.30
2023-08-05T13:12:28.941Z,20.30
2023-08-05T13:15:05.571Z,20.30
2023-08-05T13:17:40.978Z,20.28
2023-08-05T13:20:17.929Z,20.20
2023-08-05T13:22:53.554Z,20.10
2023-08-05T13:25:30.005Z,20.00
2023-08-05T13:28:06.945Z,20.00
2023-08-05T13:30:45.010Z,20.00
2023-08-05T13:33:20.928Z,20.00
2023-08-05T13:35:57.038Z,20.00
2023-08-05T13:38:33.941Z,19.90
2023-08-05T13:41:10.924Z,19.80
2023-08-05T13:43:47.967Z,19.80
2023-08-05T13:46:23.969Z,19.80
2023-08-05T13:49:01.080Z,19.70
2023-08-05T13:51:37.953Z,19.60
2023-08-05T13:54:14.920Z,19.60
2023-08-05T13:56:51.943Z,19.50
2023-08-05T13:59:28.918Z,19.50
2023-08-05T14:02:04.994Z,19.42
2023-08-05T14:04:45.961Z,19.40
2023-08-05T14:07:22.936Z,19.40
2023-08-05T14:10:01.936Z,19.40
2023-08-05T14:12:37.958Z,19.40
2023-08-05T14:15:15.964Z,19.40
2023-08-05T14:40:15.002Z,19.36
2023-08-05T14:42:49.684Z,19.40
2023-08-05T14:45:24.784Z,19.30
2023-08-05T14:48:00.121Z,19.40
2023-08-05T14:50:37.369Z,19.30
2023-08-05T14:53:13.718Z,19.20
2023-08-05T14:55:58.976Z,19.12
2023-08-05T14:58:34.024Z,19.20
2023-08-05T15:01:19.841Z,19.10
2023-08-05T15:03:55.361Z,19.10
2023-08-05T15:06:30.444Z,19.10
2023-08-05T15:09:06.623Z,19.08
2023-08-05T15:11:42.350Z,19.00
2023-08-05T15:14:17.656Z,18.90
2023-08-05T15:16:52.746Z,18.90
2023-08-05T15:19:27.544Z,18.90
2023-08-05T15:22:02.313Z,18.80
2023-08-05T15:24:37.089Z,18.80
2023-08-05T15:27:12.474Z,18.78
2023-08-05T15:29:57.276Z,18.70
2023-08-05T15:32:31.915Z,18.70
2023-08-05T15:35:08.247Z,18.70
2023-08-05T15:37:42.737Z,18.70
2023-08-05T15:40:17.842Z,18.70
2023-08-05T15:42:52.683Z,18.70
2023-08-05T15:45:29.104Z,18.70
2023-08-05T15:48:04.030Z,18.70
2023-08-05T15:50:39.312Z,18.60
2023-08-05T15:53:14.316Z,18.60
2023-08-05T15:55:49.724Z,18.50
2023-08-05T15:58:24.765Z,18.50
2023-08-05T16:01:07.336Z,18.50
2023-08-05T16:03:43.353Z,18.50
2023-08-05T16:06:18.606Z,18.40
2023-08-05T16:08:53.090Z,18.40
2023-08-05T16:11:32.503Z,18.40
2023-08-05T16:14:07.522Z,18.40
2023-08-05T16:16:42.282Z,18.30
2023-08-05T16:19:21.836Z,18.30
2023-08-05T16:21:58.149Z,18.30
2023-08-05T16:24:33.396Z,18.30
2023-08-05T16:27:09.585Z,18.30
2023-08-05T16:29:44.580Z,18.30
2023-08-05T16:32:19.491Z,18.26
2023-08-05T16:34:54.557Z,18.28
2023-08-05T16:37:29.820Z,18.26
2023-08-05T16:40:05.319Z,18.20
2023-08-05T16:42:41.169Z,18.10
2023-08-05T16:45:16.508Z,18.10
2023-08-05T16:47:51.435Z,18.00
2023-08-05T17:17:31.181Z,17.64
2023-08-05T18:52:07.053Z,17.42
2023-08-05T18:54:43.417Z,17.44
2023-08-05T18:57:18.816Z,17.40
2023-08-05T18:59:54.123Z,17.38
2023-08-05T19:02:29.483Z,17.30
2023-08-05T19:05:05.397Z,17.30
2023-08-05T19:07:42.183Z,17.26
2023-08-05T19:10:17.745Z,17.20
2023-08-05T19:12:53.723Z,17.22
2023-08-05T19:15:29.174Z,17.24
2023-08-05T19:18:04.710Z,17.20
2023-08-05T19:20:55.318Z,17.20
2023-08-05T19:23:32.700Z,17.20
2023-08-05T19:26:10.037Z,17.20
2023-08-05T19:28:45.467Z,17.20
2023-08-05T19:31:20.761Z,17.20
2023-08-05T19:33:56.149Z,17.20
2023-08-05T19:36:31.496Z,17.20
2023-08-05T19:39:07.318Z,17.20
2023-08-05T19:41:42.679Z,17.20
2023-08-05T19:44:17.179Z,17.20
2023-08-05T19:46:52.497Z,17.20
2023-08-05T19:49:27.534Z,17.20
2023-08-05T19:52:02.913Z,17.20
2023-08-05T19:54:37.855Z,17.20
2023-08-05T19:57:13.326Z,17.20
2023-08-05T19:59:48.965Z,17.18
2023-08-05T20:02:27.136Z,17.14
2023-08-05T20:05:02.531Z,17.12
2023-08-05T20:07:37.893Z,17.10
2023-08-05T20:10:14.577Z,17.10
2023-08-05T20:12:50.951Z,17.10
2023-08-05T20:15:26.725Z,17.10
2023-08-05T20:18:02.034Z,17.10
2023-08-05T20:20:37.674Z,17.10
2023-08-05T20:23:13.663Z,17.08
2023-08-05T20:25:48.603Z,17.10
2023-08-05T20:28:25.169Z,17.10
2023-08-05T20:31:00.521Z,17.10
2023-08-05T20:33:36.231Z,17.10
2023-08-05T20:36:46.452Z,17.06
2023-08-05T20:39:22.427Z,17.10
2023-08-05T20:41:58.057Z,17.10
2023-08-05T20:44:32.950Z,17.10
2023-08-05T20:47:08.184Z,17.08
2023-08-05T20:50:07.305Z,17.08
2023-08-05T20:52:43.632Z,17.08
2023-08-05T20:55:19.276Z,17.10
2023-08-05T20:57:55.068Z,17.04
2023-08-05T21:00:30.129Z,17.00
2023-08-05T21:03:06.125Z,17.00
2023-08-05T21:05:42.188Z,17.00
2023-08-05T21:08:16.959Z,17.00
2023-08-05T21:11:01.763Z,17.00
2023-08-05T21:13:37.273Z,17.00
2023-08-05T21:16:12.930Z,17.00
2023-08-05T21:18:48.584Z,17.00
2023-08-05T21:21:23.918Z,17.00
2023-08-05T21:23:59.048Z,17.00
2023-08-05T21:26:34.168Z,17.00
2023-08-05T21:29:09.110Z,17.00
2023-08-05T21:31:44.748Z,17.00
2023-08-05T21:34:20.943Z,16.92
2023-08-05T21:36:56.105Z,16.90
2023-08-05T21:39:31.152Z,16.90
2023-08-05T21:42:06.522Z,16.90
2023-08-05T21:44:41.365Z,16.90
2023-08-05T21:47:17.436Z,16.90
2023-08-05T21:49:52.857Z,16.90
2023-08-05T21:52:28.719Z,16.90
2023-08-05T21:55:04.535Z,16.86
2023-08-05T21:57:39.704Z,16.80
2023-08-05T22:00:19.191Z,16.80
2023-08-05T22:02:53.889Z,16.80
2023-08-05T22:05:28.834Z,16.86
2023-08-05T22:08:04.243Z,16.88
2023-08-05T22:10:40.338Z,16.80
2023-08-05T22:13:15.954Z,16.80
2023-08-05T22:15:55.715Z,16.80
2023-08-05T22:18:31.045Z,16.80
2023-08-05T22:21:06.109Z,16.80
2023-08-05T22:23:41.069Z,16.80
2023-08-05T22:26:16.396Z,16.80
2023-08-05T22:28:51.274Z,16.80
2023-08-05T22:31:26.369Z,16.80
2023-08-05T22:34:01.586Z,16.80
2023-08-05T22:36:36.882Z,16.80
2023-08-05T22:39:12.168Z,16.80
2023-08-05T22:41:47.161Z,16.70
2023-08-05T22:44:22.736Z,16.70
2023-08-05T22:46:57.855Z,16.70
2023-08-05T22:49:33.093Z,16.70
2023-08-05T22:52:09.655Z,16.70
2023-08-05T22:54:45.213Z,16.70
2023-08-05T22:57:19.663Z,16.70
2023-08-05T22:59:57.460Z,16.68
2023-08-05T23:02:32.626Z,16.60
2023-08-05T23:05:09.090Z,16.60
2023-08-05T23:07:44.151Z,16.66
2023-08-05T23:10:19.212Z,16.70
2023-08-05T23:12:54.480Z,16.70
2023-08-05T23:15:35.492Z,16.70
2023-08-05T23:18:11.098Z,16.70
2023-08-05T23:20:46.369Z,16.62
2023-08-05T23:23:21.542Z,16.60
2023-08-05T23:25:57.961Z,16.60
